SIA9624 WSSS-KJFK
Flight info
| Callsign | SIA9624 |
|---|---|
| Flight time | N/A |
| Altitude | 32000 |
| Route | TOMAN3A TOMAN L625 AKMON/K0950F320 L625 ANOKI/N0511F320 L625 ARESI/N0503F350 L625 MEVIN B462 KAZIK Y59 AZAMA Y57 SHIBK/N0490F370 Y57 POROT Y577 MAKMU R580 OPULO DCT OMOTO R580 OGDEN/N0486F390 R580 ORCCA DCT SQA DCT 63N146W DCT HWKGV/N0489F410 DCT 62N30 DCT 59N20 DCT ALGAR DCT YPA DCT 50N100W DCT 4690N DCT TWIGS DCT JHW Q476 WLKES PUCKY1 |
| Aircraft | A359/H-SDE1E2E3GHIJ1J2J3J5M1P2RWXYZ/LB1D1 |
Departure
| Time | N/A |
|---|---|
| Airport | Singapore Changi Airport (WSSS) |
Arrival
| Time | 2026-05-09 10:23 |
|---|---|
| Airport | John F. Kennedy International Airport (KJFK) |
| Time | Latitude | Longitude | Altitude | Speed | Heading |
|---|---|---|---|---|---|
| 2026-05-09 10:04 | 40.94360 | -74.42204 | 10917 ft | 366 kts | 100° |
| 2026-05-09 10:05 | 40.93974 | -74.38967 | 10797 ft | 348 kts | 100° |
| 2026-05-09 10:05 | 40.93606 | -74.35881 | 10651 ft | 331 kts | 100° |
| 2026-05-09 10:05 | 40.93252 | -74.32946 | 10527 ft | 316 kts | 100° |
| 2026-05-09 10:05 | 40.92916 | -74.30138 | 10389 ft | 303 kts | 100° |
| 2026-05-09 10:06 | 40.92602 | -74.27570 | 10257 ft | 289 kts | 100° |
| 2026-05-09 10:06 | 40.92288 | -74.24977 | 10053 ft | 283 kts | 100° |
| 2026-05-09 10:06 | 40.91974 | -74.22401 | 9784 ft | 290 kts | 100° |
| 2026-05-09 10:06 | 40.91644 | -74.19713 | 9702 ft | 299 kts | 100° |
| 2026-05-09 10:07 | 40.91315 | -74.17017 | 9334 ft | 297 kts | 100° |
| 2026-05-09 10:07 | 40.91005 | -74.14472 | 8873 ft | 296 kts | 100° |
| 2026-05-09 10:07 | 40.90505 | -74.11859 | 8521 ft | 293 kts | 114° |
| 2026-05-09 10:07 | 40.89582 | -74.09715 | 8248 ft | 290 kts | 126° |
| 2026-05-09 10:08 | 40.88490 | -74.07529 | 7939 ft | 288 kts | 124° |
| 2026-05-09 10:08 | 40.87401 | -74.05310 | 7633 ft | 287 kts | 124° |
| 2026-05-09 10:08 | 40.86358 | -74.03171 | 7330 ft | 285 kts | 124° |
| 2026-05-09 10:08 | 40.85284 | -74.00969 | 7024 ft | 284 kts | 124° |
| 2026-05-09 10:09 | 40.84291 | -73.98933 | 6719 ft | 283 kts | 124° |
| 2026-05-09 10:09 | 40.83229 | -73.96755 | 6425 ft | 281 kts | 124° |
| 2026-05-09 10:09 | 40.82171 | -73.94593 | 6124 ft | 280 kts | 124° |
| 2026-05-09 10:09 | 40.81116 | -73.92440 | 5824 ft | 279 kts | 124° |
| 2026-05-09 10:10 | 40.80072 | -73.90309 | 5504 ft | 277 kts | 124° |
| 2026-05-09 10:10 | 40.79057 | -73.88228 | 5207 ft | 276 kts | 124° |
| 2026-05-09 10:10 | 40.78361 | -73.86790 | 5004 ft | 275 kts | 124° |
| 2026-05-09 10:10 | 40.76997 | -73.83966 | 4601 ft | 274 kts | 124° |
| 2026-05-09 10:11 | 40.75985 | -73.81875 | 4305 ft | 272 kts | 124° |
| 2026-05-09 10:11 | 40.74993 | -73.79819 | 4052 ft | 270 kts | 124° |
| 2026-05-09 10:11 | 40.74350 | -73.78482 | 3985 ft | 269 kts | 124° |
| 2026-05-09 10:11 | 40.73226 | -73.75575 | 3984 ft | 273 kts | 104° |
| 2026-05-09 10:12 | 40.73132 | -73.73807 | 3976 ft | 275 kts | 85° |
| 2026-05-09 10:12 | 40.73288 | -73.72765 | 3916 ft | 276 kts | 73° |
| 2026-05-09 10:12 | 40.74059 | -73.70716 | 3789 ft | 275 kts | 56° |
| 2026-05-09 10:12 | 40.74756 | -73.69281 | 3659 ft | 276 kts | 57° |
| 2026-05-09 10:13 | 40.76448 | -73.66864 | 3432 ft | 274 kts | 29° |
| 2026-05-09 10:13 | 40.78237 | -73.66104 | 3257 ft | 269 kts | 3° |
| 2026-05-09 10:13 | 40.79502 | -73.66009 | 3136 ft | 268 kts | 358° |
| 2026-05-09 10:13 | 40.81331 | -73.66013 | 3006 ft | 256 kts | 355° |
| 2026-05-09 10:14 | 40.82880 | -73.66238 | 2986 ft | 238 kts | 348° |
| 2026-05-09 10:14 | 40.84293 | -73.66548 | 2984 ft | 223 kts | 347° |
| 2026-05-09 10:14 | 40.85789 | -73.66892 | 2992 ft | 216 kts | 347° |
| 2026-05-09 10:14 | 40.87246 | -73.67230 | 2994 ft | 213 kts | 347° |
| 2026-05-09 10:15 | 40.88671 | -73.67267 | 2982 ft | 201 kts | 11° |
| 2026-05-09 10:15 | 40.89852 | -73.66359 | 2993 ft | 199 kts | 48° |
| 2026-05-09 10:15 | 40.90406 | -73.64717 | 2996 ft | 196 kts | 86° |
| 2026-05-09 10:15 | 40.90128 | -73.63009 | 2999 ft | 191 kts | 124° |
| 2026-05-09 10:16 | 40.89157 | -73.61904 | 3000 ft | 184 kts | 161° |
| 2026-05-09 10:16 | 40.87926 | -73.61523 | 3003 ft | 182 kts | 174° |
| 2026-05-09 10:16 | 40.86667 | -73.61345 | 3000 ft | 183 kts | 176° |
| 2026-05-09 10:16 | 40.85402 | -73.61285 | 2999 ft | 182 kts | 185° |
| 2026-05-09 10:17 | 40.84143 | -73.61406 | 2997 ft | 181 kts | 187° |
| 2026-05-09 10:17 | 40.82894 | -73.61588 | 2993 ft | 181 kts | 192° |
| 2026-05-09 10:17 | 40.81708 | -73.62106 | 2997 ft | 179 kts | 206° |
| 2026-05-09 10:17 | 40.80617 | -73.62886 | 2999 ft | 178 kts | 211° |
| 2026-05-09 10:18 | 40.79545 | -73.63708 | 2999 ft | 178 kts | 211° |
| 2026-05-09 10:18 | 40.78480 | -73.64541 | 2997 ft | 178 kts | 211° |
| 2026-05-09 10:18 | 40.77411 | -73.65378 | 2921 ft | 179 kts | 211° |
| 2026-05-09 10:18 | 40.76370 | -73.66184 | 2729 ft | 178 kts | 211° |
| 2026-05-09 10:19 | 40.75302 | -73.67021 | 2487 ft | 177 kts | 211° |
| 2026-05-09 10:19 | 40.74242 | -73.67857 | 2253 ft | 174 kts | 210° |
| 2026-05-09 10:19 | 40.73217 | -73.68662 | 1997 ft | 167 kts | 210° |
| 2026-05-09 10:19 | 40.72248 | -73.69422 | 1780 ft | 157 kts | 210° |
| 2026-05-09 10:20 | 40.71330 | -73.70144 | 1576 ft | 156 kts | 210° |
| 2026-05-09 10:20 | 40.70433 | -73.70848 | 1365 ft | 144 kts | 210° |
| 2026-05-09 10:20 | 40.69661 | -73.71455 | 1195 ft | 134 kts | 210° |
| 2026-05-09 10:20 | 40.69010 | -73.71966 | 1048 ft | 126 kts | 210° |
| 2026-05-09 10:21 | 40.68367 | -73.72464 | 925 ft | 124 kts | 208° |
| 2026-05-09 10:21 | 40.68057 | -73.72697 | 852 ft | 125 kts | 208° |
| 2026-05-09 10:21 | 40.67463 | -73.73161 | 715 ft | 126 kts | 210° |
| 2026-05-09 10:21 | 40.66739 | -73.73746 | 564 ft | 127 kts | 210° |
| 2026-05-09 10:22 | 40.66276 | -73.74129 | 448 ft | 127 kts | 211° |
| 2026-05-09 10:22 | 40.65931 | -73.74416 | 387 ft | 124 kts | 211° |
| 2026-05-09 10:22 | 40.65821 | -73.74507 | 376 ft | 124 kts | 211° |
| 2026-05-09 10:23 | 40.65343 | -73.74893 | 268 ft | 126 kts | 210° |
| 2026-05-09 10:23 | 40.64584 | -73.75444 | 102 ft | 125 kts | 212° |
| 2026-05-09 10:23 | 40.63894 | -73.75978 | 30 ft | 120 kts | 213° |
| 2026-05-09 10:23 | 40.63447 | -73.76327 | 31 ft | 34 kts | 211° |
| 2026-05-09 10:24 | 40.63287 | -73.76517 | 27 ft | 33 kts | 238° |
| 2026-05-09 10:24 | 40.63235 | -73.76676 | 30 ft | 19 kts | 269° |
| 2026-05-09 10:24 | 40.63237 | -73.76696 | 25 ft | 17 kts | 278° |